Time;durP1;ratioP1;P1;durP2;ratioP2;P2;SDS_P1;SDS_P2;PMS_P1;PMS_P2;Temp;Humidity;BMP_temperature;BMP_pressure;BME280_temperature;BME280_humidity;BME280_pressure;Samples;Min_cycle;Max_cycle;Signal;HPM_P1;HPM_P2
2022/04/30 00:02:07;;;;;;;20.52;13.63;;;;;;;11.65;nan;101158.72;5009356;28;20048;-73
2022/04/30 00:04:34;;;;;;;19.80;13.45;;;;;;;11.61;nan;101156.53;5009623;28;20038;-73
2022/04/30 00:06:59;;;;;;;21.60;12.70;;;;;;;11.62;nan;101166.16;5012466;28;20045;-72
2022/04/30 00:09:25;;;;;;;21.73;13.00;;;;;;;11.52;nan;101168.00;5016467;28;20064;-73
2022/04/30 00:11:50;;;;;;;24.67;15.77;;;;;;;11.50;nan;101167.28;5016780;28;20116;-73
2022/04/30 00:14:16;;;;;;;21.95;14.18;;;;;;;11.50;nan;101168.13;5017686;28;20061;-72
2022/04/30 00:16:41;;;;;;;20.23;13.43;;;;;;;11.48;nan;101172.72;5017710;28;20073;-72
2022/04/30 00:19:08;;;;;;;16.27;11.32;;;;;;;11.51;nan;101183.03;5016626;28;20034;-74
2022/04/30 00:21:33;;;;;;;18.85;12.35;;;;;;;11.52;nan;101192.66;5016339;28;20041;-73
2022/04/30 00:23:59;;;;;;;19.05;13.15;;;;;;;11.52;nan;101194.47;5018020;28;20080;-73
2022/04/30 00:26:24;;;;;;;15.85;10.65;;;;;;;11.59;nan;101200.88;5016820;28;20030;-73
2022/04/30 00:28:49;;;;;;;15.18;9.88;;;;;;;11.64;nan;101195.97;5010041;28;20136;-73
2022/04/30 00:31:15;;;;;;;12.55;9.25;;;;;;;11.67;nan;101206.28;5014916;28;20092;-73
2022/04/30 00:33:40;;;;;;;13.80;9.68;;;;;;;11.68;nan;101198.22;5011146;28;20130;-72
2022/04/30 00:36:06;;;;;;;15.50;9.88;;;;;;;11.67;nan;101196.53;5014322;28;20117;-73
2022/04/30 00:38:31;;;;;;;17.42;11.48;;;;;;;11.67;nan;101193.88;5013153;28;20038;-74
2022/04/30 00:40:56;;;;;;;22.60;13.52;;;;;;;11.61;nan;101185.69;5009864;28;20092;-73
2022/04/30 00:43:21;;;;;;;20.35;13.93;;;;;;;11.56;nan;101180.81;5015041;28;20069;-73
2022/04/30 00:45:48;;;;;;;23.77;13.80;;;;;;;11.53;nan;101178.41;5014750;28;20483;-74
2022/04/30 00:48:14;;;;;;;23.38;14.57;;;;;;;11.48;nan;101173.53;5015941;28;20104;-73
2022/04/30 00:50:41;;;;;;;23.08;13.65;;;;;;;11.44;nan;101171.31;5013113;28;20045;-73
2022/04/30 00:53:08;;;;;;;20.83;13.60;;;;;;;11.43;nan;101159.91;5012009;28;20045;-74
2022/04/30 00:55:36;;;;;;;23.50;13.93;;;;;;;11.41;nan;101161.03;5008674;28;20457;-74
2022/04/30 00:58:05;;;;;;;18.67;13.10;;;;;;;11.38;nan;101166.59;5011242;28;20124;-73
2022/04/30 01:00:30;;;;;;;17.58;12.00;;;;;;;11.39;nan;101162.97;5012456;28;20038;-73
2022/04/30 01:02:56;;;;;;;20.17;13.43;;;;;;;11.40;nan;101162.00;5012449;28;20560;-74
2022/04/30 01:05:21;;;;;;;18.85;12.45;;;;;;;11.40;nan;101159.38;5007127;28;20136;-73
2022/04/30 01:07:47;;;;;;;18.42;12.05;;;;;;;11.41;nan;101158.38;5014473;28;20030;-73
2022/04/30 01:10:13;;;;;;;15.70;11.00;;;;;;;11.40;nan;101162.00;5011816;28;20038;-73
2022/04/30 01:12:39;;;;;;;17.77;11.13;;;;;;;11.42;nan;101160.06;5007447;28;20051;-73
2022/04/30 01:15:06;;;;;;;17.05;11.07;;;;;;;11.43;nan;101159.06;5012973;28;20108;-73
2022/04/30 01:17:32;;;;;;;22.70;14.55;;;;;;;11.40;nan;101152.25;5014411;28;20033;-73
2022/04/30 01:19:58;;;;;;;18.17;14.00;;;;;;;11.42;nan;101150.28;5006948;28;20413;-72
2022/04/30 01:22:29;;;;;;;19.55;13.60;;;;;;;11.35;nan;101143.06;5012132;28;20053;-73
2022/04/30 01:24:56;;;;;;;20.08;14.30;;;;;;;11.33;nan;101151.16;5010485;28;20033;-73
2022/04/30 01:27:26;;;;;;;24.90;14.48;;;;;;;11.32;nan;101151.28;5007299;28;20026;-73
2022/04/30 01:29:52;;;;;;;24.25;14.35;;;;;;;11.25;nan;101141.25;5014124;28;20050;-74
2022/04/30 01:37:55;;;;;;;17.08;12.90;;;;;;;11.26;nan;101134.97;5013572;28;20048;-74
2022/04/30 01:40:21;;;;;;;22.25;14.30;;;;;;;11.25;nan;101143.91;5007682;28;20084;-73
2022/04/30 01:42:47;;;;;;;22.33;13.05;;;;;;;11.22;nan;101146.00;5010924;28;20085;-74
2022/04/30 01:45:14;;;;;;;21.42;14.25;;;;;;;11.19;nan;101146.28;5017626;28;20137;-73
2022/04/30 01:47:41;;;;;;;24.10;15.10;;;;;;;11.19;nan;101156.88;5012039;28;20042;-74
2022/04/30 01:50:08;;;;;;;23.98;13.73;;;;;;;11.19;nan;101156.88;5010145;28;20129;-73
2022/04/30 01:52:34;;;;;;;18.98;12.23;;;;;;;11.21;nan;101158.41;5011182;28;20034;-73
2022/04/30 01:54:59;;;;;;;22.35;12.77;;;;;;;11.16;nan;101162.44;5019078;28;20045;-73
2022/04/30 01:57:28;;;;;;;;;;;;;;;11.11;nan;101170.81;5014783;28;20034;-73
2022/04/30 01:59:55;;;;;;;22.70;14.02;;;;;;;11.03;nan;101160.91;5006826;28;19917;-74
2022/04/30 02:02:23;;;;;;;19.17;13.57;;;;;;;10.99;nan;101164.81;5013067;28;20038;-74
2022/04/30 02:04:54;;;;;;;21.60;14.32;;;;;;;10.94;nan;101161.75;5013436;28;20030;-74
2022/04/30 02:07:21;;;;;;;24.20;14.98;;;;;;;10.93;nan;101159.22;5008727;28;20385;-73
2022/04/30 02:09:51;;;;;;;16.38;12.32;;;;;;;10.93;nan;101152.13;5005196;28;20044;-74
2022/04/30 02:12:17;;;;;;;22.42;15.00;;;;;;;10.84;nan;101147.66;5006896;28;20041;-73
2022/04/30 02:14:47;;;;;;;22.40;14.50;;;;;;;10.80;nan;101141.00;5014589;28;20101;-73
2022/04/30 02:17:14;;;;;;;;;;;;;;;10.77;nan;101136.81;5009315;28;20526;-74
2022/04/30 02:22:27;;;;;;;22.05;14.30;;;;;;;10.55;nan;101140.53;5012396;28;20080;-74
2022/04/30 02:24:53;;;;;;;25.63;15.55;;;;;;;10.49;nan;101130.50;5011776;28;20022;-74
2022/04/30 02:27:18;;;;;;;24.30;16.20;;;;;;;10.47;nan;101139.56;5018708;28;20067;-73
2022/04/30 02:29:44;;;;;;;26.63;15.75;;;;;;;10.39;nan;101135.78;5012369;28;20712;-72
2022/04/30 02:32:10;;;;;;;23.55;14.25;;;;;;;10.35;nan;101134.38;5013478;28;20041;-73
2022/04/30 02:34:35;;;;;;;23.92;15.38;;;;;;;10.27;nan;101128.88;5008301;28;20064;-73
2022/04/30 02:37:04;;;;;;;22.58;15.05;;;;;;;10.21;nan;101126.78;5009668;28;20022;-73
2022/04/30 02:39:31;;;;;;;24.83;15.48;;;;;;;10.14;nan;101115.09;5007275;28;20125;-73
2022/04/30 02:41:57;;;;;;;20.60;14.23;;;;;;;10.07;nan;101111.31;5004599;28;20038;-73
2022/04/30 02:44:26;;;;;;;25.48;14.73;;;;;;;9.98;nan;101100.56;5004350;28;20044;-73
2022/04/30 02:46:55;;;;;;;25.05;14.57;;;;;;;9.89;nan;101101.38;5002336;28;20060;-72
2022/04/30 02:49:21;;;;;;;25.45;15.20;;;;;;;9.82;nan;101096.75;5006725;28;20288;-73
2022/04/30 02:51:48;;;;;;;26.42;15.45;;;;;;;9.82;nan;101097.59;5002640;28;20037;-73
2022/04/30 02:54:15;;;;;;;23.40;14.80;;;;;;;9.77;nan;101097.13;5005890;28;20057;-72
2022/04/30 02:56:40;;;;;;;24.50;15.30;;;;;;;9.76;nan;101108.69;5011012;28;20034;-72
2022/04/30 03:01:50;;;;;;;20.40;13.60;;;;;;;9.80;nan;101107.47;5008261;28;20108;-72
2022/04/30 03:04:15;;;;;;;21.30;13.45;;;;;;;9.81;nan;101110.94;5007269;28;20026;-72
2022/04/30 03:06:40;;;;;;;21.95;15.27;;;;;;;9.81;nan;101109.13;5007178;28;20033;-71
2022/04/30 03:09:05;;;;;;;22.27;14.27;;;;;;;9.77;nan;101105.06;5007733;28;20064;-71
2022/04/30 03:11:31;;;;;;;20.40;15.00;;;;;;;9.76;nan;101106.88;5007631;28;20522;-71
2022/04/30 03:13:57;;;;;;;24.48;14.55;;;;;;;9.71;nan;101097.69;5006369;28;20172;-71
2022/04/30 03:21:52;;;;;;;20.35;13.32;;;;;;;9.63;nan;101092.19;5002689;28;20133;-71
2022/04/30 03:24:18;;;;;;;20.23;13.48;;;;;;;9.60;nan;101089.84;4998226;28;20121;-71
2022/04/30 03:26:44;;;;;;;23.30;14.95;;;;;;;9.60;nan;101084.56;5008158;28;20038;-71
2022/04/30 03:29:10;;;;;;;23.55;14.88;;;;;;;9.56;nan;101079.53;5009559;28;20410;-71
2022/04/30 03:31:38;;;;;;;20.42;14.27;;;;;;;9.56;nan;101081.34;5005713;28;20034;-71
2022/04/30 03:34:03;;;;;;;19.67;13.93;;;;;;;9.57;nan;101081.22;5005943;28;20099;-70
2022/04/30 03:36:29;;;;;;;17.33;12.35;;;;;;;9.59;nan;101083.72;5005678;28;20046;-71
2022/04/30 03:38:55;;;;;;;23.60;13.18;;;;;;;9.60;nan;101082.75;5007276;28;20286;-71
2022/04/30 03:41:20;;;;;;;17.77;11.30;;;;;;;9.63;nan;101087.78;5003515;28;20041;-71
2022/04/30 03:43:45;;;;;;;16.20;12.15;;;;;;;9.62;nan;101083.44;5002139;28;20034;-71
2022/04/30 03:46:11;;;;;;;14.33;11.70;;;;;;;9.75;nan;101091.19;5001146;28;20458;-70
2022/04/30 03:48:36;;;;;;;14.63;10.98;;;;;;;9.73;nan;101091.28;5006205;28;20041;-70
2022/04/30 03:51:02;;;;;;;17.23;11.35;;;;;;;9.72;nan;101094.88;5004596;28;20069;-70
2022/04/30 03:53:27;;;;;;;16.73;11.85;;;;;;;9.71;nan;101087.94;4999701;28;20179;-70
2022/04/30 03:55:53;;;;;;;19.17;12.80;;;;;;;9.71;nan;101087.13;5007128;28;20034;-70
2022/04/30 03:58:18;;;;;;;20.67;13.60;;;;;;;9.67;nan;101083.06;5005950;28;20029;-70
2022/04/30 04:00:46;;;;;;;19.63;13.13;;;;;;;9.65;nan;101085.81;5000936;28;20044;-70
2022/04/30 04:03:13;;;;;;;17.90;13.23;;;;;;;9.62;nan;101085.25;5007443;28;20035;-70
2022/04/30 04:05:38;;;;;;;18.10;12.43;;;;;;;9.64;nan;101084.16;5004767;28;20121;-70
2022/04/30 04:08:10;;;;;;;19.40;12.30;;;;;;;9.64;nan;101091.25;5004563;28;20129;-70
2022/04/30 04:10:36;;;;;;;;;;;;;;;9.67;nan;101091.81;5002595;28;20104;-70
2022/04/30 04:17:37;;;;;;;17.65;11.90;;;;;;;9.70;nan;101099.50;5006750;28;20020;-70
2022/04/30 04:18:30;;;;;;;20.17;12.85;;;;;;;9.66;nan;101097.25;5003801;28;20041;-70
2022/04/30 04:20:56;;;;;;;17.70;11.90;;;;;;;9.68;nan;101097.97;5012237;28;20045;-70
2022/04/30 04:23:22;;;;;;;16.02;10.75;;;;;;;9.72;nan;101100.16;5007531;28;20495;-70
2022/04/30 04:25:59;;;;;;;13.75;9.95;;;;;;;9.80;nan;101102.16;5009012;28;20144;-70
2022/04/30 04:28:24;;;;;;;13.90;9.90;;;;;;;9.83;nan;101101.91;5009980;28;20037;-70
2022/04/30 04:30:50;;;;;;;13.48;9.15;;;;;;;9.86;nan;101100.78;5013837;28;20030;-70
2022/04/30 04:33:15;;;;;;;13.32;9.93;;;;;;;9.91;nan;101093.31;5009143;28;20042;-70
2022/04/30 04:35:40;;;;;;;20.88;13.05;;;;;;;9.84;nan;101092.16;5001323;28;20109;-70
2022/04/30 04:38:06;;;;;;;18.40;13.02;;;;;;;9.76;nan;101087.56;5015178;28;20037;-70
2022/04/30 04:40:31;;;;;;;19.17;13.68;;;;;;;9.76;nan;101090.19;5012534;28;20034;-70
2022/04/30 04:42:56;;;;;;;19.70;14.30;;;;;;;9.69;nan;101084.59;5006907;28;20049;-70
2022/04/30 04:45:23;;;;;;;19.67;13.75;;;;;;;9.62;nan;101086.09;5011447;28;20042;-69
2022/04/30 04:47:50;;;;;;;20.33;14.25;;;;;;;9.57;nan;101086.47;5009120;28;20050;-69
2022/04/30 04:50:16;;;;;;;17.70;12.98;;;;;;;9.61;nan;101088.88;5011680;28;20215;-70
2022/04/30 04:52:42;;;;;;;21.13;13.40;;;;;;;9.57;nan;101091.75;5011671;28;20117;-70
2022/04/30 04:55:08;;;;;;;19.02;14.27;;;;;;;9.61;nan;101086.25;5011109;28;20746;-69
2022/04/30 04:57:34;;;;;;;18.42;13.15;;;;;;;9.55;nan;101083.13;5010090;28;20087;-70
2022/04/30 04:59:59;;;;;;;18.50;12.93;;;;;;;9.58;nan;101079.41;5011831;28;20053;-70
2022/04/30 05:02:25;;;;;;;19.67;13.90;;;;;;;9.49;nan;101078.41;5010971;28;20065;-70
2022/04/30 05:04:51;;;;;;;20.77;14.10;;;;;;;9.47;nan;101088.25;5010829;28;20088;-70
2022/04/30 05:07:16;;;;;;;18.73;13.93;;;;;;;9.47;nan;101087.41;5011463;28;20041;-70
2022/04/30 05:09:41;;;;;;;19.77;14.50;;;;;;;9.44;nan;101100.84;5009317;28;20030;-70
2022/04/30 05:12:07;;;;;;;19.38;14.23;;;;;;;9.42;nan;101098.38;5007535;28;20045;-70
2022/04/30 05:14:33;;;;;;;21.23;14.02;;;;;;;9.43;nan;101100.03;5011834;28;20048;-70
2022/04/30 05:17:00;;;;;;;21.80;15.75;;;;;;;9.38;nan;101110.16;5019311;28;20522;-69
2022/04/30 05:19:25;;;;;;;21.55;15.00;;;;;;;9.34;nan;101103.44;5009466;28;20037;-69
2022/04/30 05:21:50;;;;;;;21.05;14.75;;;;;;;9.34;nan;101111.34;5007643;28;20038;-70
2022/04/30 05:24:16;;;;;;;23.45;14.38;;;;;;;9.37;nan;101121.69;5004674;28;20091;-70
2022/04/30 05:26:41;;;;;;;23.55;16.00;;;;;;;9.30;nan;101116.06;5010184;28;20033;-69
2022/04/30 05:29:06;;;;;;;22.23;15.48;;;;;;;9.32;nan;101116.78;5011443;28;20234;-70
2022/04/30 05:31:32;;;;;;;18.95;14.27;;;;;;;9.32;nan;101118.59;5009085;28;20192;-70
2022/04/30 05:33:57;;;;;;;18.00;13.00;;;;;;;9.34;nan;101117.50;5011046;28;20034;-70
2022/04/30 05:36:22;;;;;;;20.10;14.25;;;;;;;9.32;nan;101123.88;5007720;28;20502;-70
2022/04/30 05:38:48;;;;;;;14.90;11.40;;;;;;;9.39;nan;101132.09;5010128;28;20038;-70
2022/04/30 05:41:13;;;;;;;20.98;15.18;;;;;;;9.37;nan;101124.31;5005986;28;20374;-70
2022/04/30 05:43:39;;;;;;;16.80;11.85;;;;;;;9.42;nan;101129.22;5009354;28;20040;-70
2022/04/30 05:46:04;;;;;;;14.95;11.25;;;;;;;9.48;nan;101128.69;5005266;28;20042;-70
2022/04/30 05:48:29;;;;;;;13.88;10.02;;;;;;;9.55;nan;101130.66;5014054;28;20040;-70
2022/04/30 05:50:55;;;;;;;12.85;10.02;;;;;;;9.61;nan;101139.06;5008458;28;20034;-70
2022/04/30 05:53:21;;;;;;;16.33;11.18;;;;;;;9.58;nan;101129.56;5009747;28;20566;-70
2022/04/30 05:55:46;;;;;;;18.08;13.00;;;;;;;9.59;nan;101136.53;5006127;28;20038;-70
2022/04/30 05:58:12;;;;;;;16.95;11.48;;;;;;;9.65;nan;101141.28;5009164;28;20038;-70
2022/04/30 06:00:37;;;;;;;14.32;9.35;;;;;;;9.69;nan;101144.50;5007428;28;20092;-70
2022/04/30 06:03:02;;;;;;;16.92;11.75;;;;;;;9.69;nan;101152.44;5011429;28;20391;-70
2022/04/30 06:05:28;;;;;;;17.27;11.55;;;;;;;9.69;nan;101153.25;5006779;28;20037;-70
2022/04/30 06:07:53;;;;;;;14.68;10.43;;;;;;;9.69;nan;101158.53;5010014;28;20033;-70
2022/04/30 06:10:19;;;;;;;15.13;10.60;;;;;;;9.69;nan;101157.72;5008439;28;20030;-70
2022/04/30 06:12:44;;;;;;;16.85;12.55;;;;;;;9.65;nan;101162.41;5005647;28;20061;-70
2022/04/30 06:15:10;;;;;;;15.70;11.32;;;;;;;9.70;nan;101159.38;5010526;28;20426;-70
2022/04/30 06:17:35;;;;;;;16.70;11.93;;;;;;;9.72;nan;101160.91;5014669;28;20105;-70
2022/04/30 06:20:01;;;;;;;14.23;11.13;;;;;;;9.77;nan;101166.66;5008498;28;20034;-70
2022/04/30 06:22:26;;;;;;;13.02;9.23;;;;;;;9.85;nan;101176.56;5008811;28;20325;-70
2022/04/30 06:24:51;;;;;;;16.10;11.40;;;;;;;9.88;nan;101173.66;5008262;28;20034;-70
2022/04/30 06:27:17;;;;;;;15.23;11.85;;;;;;;9.89;nan;101174.47;5012079;28;20065;-70
2022/04/30 06:29:42;;;;;;;17.65;11.93;;;;;;;9.94;nan;101180.25;5009046;28;20033;-70
2022/04/30 06:32:09;;;;;;;15.70;10.98;;;;;;;9.96;nan;101178.28;5010389;28;20125;-70
2022/04/30 06:34:34;;;;;;;15.82;11.18;;;;;;;10.00;nan;101185.81;5008650;28;20345;-70
2022/04/30 06:37:00;;;;;;;11.40;8.95;;;;;;;10.07;nan;101186.13;5005286;28;20117;-70
2022/04/30 06:39:25;;;;;;;19.50;13.57;;;;;;;10.00;nan;101180.53;5009035;28;20113;-70
2022/04/30 06:41:50;;;;;;;19.13;14.57;;;;;;;9.94;nan;101180.25;5005432;28;20213;-70
2022/04/30 06:44:16;;;;;;;23.52;15.90;;;;;;;9.89;nan;101179.75;5007334;28;20030;-70
2022/04/30 06:46:41;;;;;;;19.00;13.35;;;;;;;9.89;nan;101179.75;5009853;28;20494;-70
2022/04/30 06:49:06;;;;;;;18.42;13.95;;;;;;;9.93;nan;101189.94;5002070;28;20383;-70
2022/04/30 06:51:32;;;;;;;23.00;16.35;;;;;;;9.88;nan;101188.69;5009367;28;20379;-70
2022/04/30 06:59:28;;;;;;;19.30;14.70;;;;;;;9.90;nan;101189.38;5011228;28;20076;-70
2022/04/30 07:01:59;;;;;;;21.50;15.88;;;;;;;9.96;nan;101192.34;5014115;28;20038;-70
2022/04/30 07:04:26;;;;;;;23.48;15.43;;;;;;;9.86;nan;101193.25;5006106;28;20838;-70
2022/04/30 07:06:51;;;;;;;21.90;14.75;;;;;;;9.93;nan;101192.59;5006504;28;20513;-70
2022/04/30 07:09:17;;;;;;;17.42;13.43;;;;;;;9.95;nan;101195.09;5006132;28;20030;-70
2022/04/30 07:11:42;;;;;;;20.98;14.85;;;;;;;9.97;nan;101194.00;5006727;28;20034;-70
2022/04/30 07:14:08;;;;;;;19.67;14.55;;;;;;;9.98;nan;101195.66;5010260;28;20042;-70
2022/04/30 07:16:34;;;;;;;23.27;15.55;;;;;;;9.97;nan;101196.66;5009163;28;20041;-70
2022/04/30 07:19:00;;;;;;;23.80;16.13;;;;;;;9.92;nan;101203.31;5008742;28;20333;-70
2022/04/30 07:21:27;;;;;;;20.45;15.85;;;;;;;9.94;nan;101193.44;5009983;28;20048;-70
2022/04/30 07:23:53;;;;;;;24.10;17.42;;;;;;;9.85;nan;101195.06;5008860;28;20052;-70
2022/04/30 07:26:19;;;;;;;21.63;15.45;;;;;;;9.85;nan;101200.34;5008100;28;20487;-70
2022/04/30 07:28:46;;;;;;;20.38;15.45;;;;;;;9.85;nan;101200.34;5007384;28;20614;-70
2022/04/30 07:31:11;;;;;;;24.23;16.15;;;;;;;9.92;nan;101198.84;5006914;28;20045;-70
2022/04/30 07:33:37;;;;;;;21.67;16.38;;;;;;;9.91;nan;101198.97;5003260;28;20455;-70
2022/04/30 07:36:03;;;;;;;24.98;17.00;;;;;;;9.94;nan;101198.72;5008781;28;20073;-70
2022/04/30 07:38:28;;;;;;;21.85;16.55;;;;;;;9.94;nan;101204.00;5007132;28;20615;-70
2022/04/30 07:40:54;;;;;;;21.88;16.67;;;;;;;9.86;nan;101206.47;5023998;28;20288;-70
2022/04/30 07:43:19;;;;;;;22.92;16.70;;;;;;;9.76;nan;101209.03;5009650;28;20034;-70
2022/04/30 07:45:44;;;;;;;20.20;15.90;;;;;;;9.71;nan;101205.97;5009144;28;20065;-70
2022/04/30 07:48:10;;;;;;;22.35;17.38;;;;;;;9.72;nan;101208.44;5010030;28;20034;-70
2022/04/30 07:50:36;;;;;;;20.17;15.32;;;;;;;9.70;nan;101212.19;5009093;28;20554;-70
2022/04/30 07:53:06;;;;;;;24.13;16.85;;;;;;;9.71;nan;101219.16;5008584;28;20491;-70
2022/04/30 07:55:32;;;;;;;22.50;16.20;;;;;;;9.74;nan;101219.72;5007319;28;20038;-70
2022/04/30 07:57:57;;;;;;;23.23;16.13;;;;;;;9.73;nan;101222.50;5005764;28;20562;-69
2022/04/30 08:00:23;;;;;;;26.00;18.02;;;;;;;9.71;nan;101216.53;5010562;28;20053;-70
2022/04/30 08:02:49;;;;;;;25.77;17.67;;;;;;;9.67;nan;101218.56;5015280;28;20034;-70
2022/04/30 08:05:15;;;;;;;20.98;15.95;;;;;;;9.65;nan;101227.59;5010946;28;20037;-70
2022/04/30 08:07:41;;;;;;;22.92;16.80;;;;;;;9.56;nan;101223.94;5013349;28;20450;-70
2022/04/30 08:10:07;;;;;;;22.27;16.50;;;;;;;9.59;nan;101226.31;5007014;28;20045;-70
2022/04/30 08:12:32;;;;;;;22.15;16.75;;;;;;;9.55;nan;101225.72;5010089;28;20056;-70
2022/04/30 08:14:57;;;;;;;21.60;15.57;;;;;;;9.57;nan;101230.88;5008873;28;20682;-70
2022/04/30 08:17:23;;;;;;;21.77;16.67;;;;;;;9.55;nan;101225.72;5010352;28;20064;-70
2022/04/30 08:19:49;;;;;;;22.63;16.67;;;;;;;9.57;nan;101236.97;5011567;28;20034;-69
2022/04/30 08:22:14;;;;;;;20.08;15.55;;;;;;;9.59;nan;101231.59;5012938;28;20033;-70
2022/04/30 08:24:39;;;;;;;20.45;15.50;;;;;;;9.54;nan;101233.78;5011623;28;20037;-69
2022/04/30 08:27:05;;;;;;;23.73;16.15;;;;;;;9.49;nan;101236.78;5011501;28;20106;-69
2022/04/30 08:29:31;;;;;;;22.08;15.98;;;;;;;9.49;nan;101234.16;5011231;28;20034;-70
2022/04/30 08:31:56;;;;;;;20.08;15.80;;;;;;;9.49;nan;101246.53;5007213;28;20029;-70
2022/04/30 08:34:21;;;;;;;22.17;16.02;;;;;;;9.45;nan;101245.09;5009892;28;20046;-70
2022/04/30 08:36:47;;;;;;;23.58;15.80;;;;;;;9.48;nan;101248.31;5008881;28;20038;-70
2022/04/30 08:39:12;;;;;;;22.63;16.50;;;;;;;9.47;nan;101243.16;5010237;28;20026;-70
2022/04/30 08:41:41;;;;;;;23.95;17.42;;;;;;;9.43;nan;101253.13;5005279;28;20037;-70
2022/04/30 08:44:07;;;;;;;19.33;14.63;;;;;;;9.43;nan;101252.28;5021420;28;20029;-70
2022/04/30 08:46:32;;;;;;;18.70;14.80;;;;;;;9.41;nan;101247.13;5005679;28;20084;-70
2022/04/30 08:48:59;;;;;;;20.55;15.38;;;;;;;9.43;nan;101245.22;5011955;28;20077;-69
2022/04/30 08:51:24;;;;;;;21.85;15.50;;;;;;;9.37;nan;101243.09;5015468;28;20064;-69
2022/04/30 08:53:50;;;;;;;20.85;14.98;;;;;;;9.38;nan;101247.41;5016812;28;20061;-70
2022/04/30 08:56:15;;;;;;;22.45;15.60;;;;;;;9.36;nan;101257.25;5020262;28;20034;-70
2022/04/30 08:58:40;;;;;;;23.85;16.90;;;;;;;9.36;nan;101251.97;5008828;28;20030;-69
2022/04/30 09:01:09;;;;;;;23.02;16.20;;;;;;;9.30;nan;101253.31;5021333;28;20037;-70
2022/04/30 09:03:36;;;;;;;23.17;17.08;;;;;;;9.27;nan;101250.06;5006639;28;20069;-70
2022/04/30 09:06:02;;;;;;;21.15;16.17;;;;;;;9.26;nan;101249.25;5008047;28;20449;-70
2022/04/30 09:08:28;;;;;;;21.60;15.85;;;;;;;9.29;nan;101251.63;5011894;28;20049;-69
2022/04/30 09:11:04;;;;;;;22.30;16.90;;;;;;;9.27;nan;101252.72;5006797;28;20037;-70
2022/04/30 09:13:30;;;;;;;20.98;16.13;;;;;;;9.33;nan;101242.50;5005751;28;20033;-70
2022/04/30 09:15:56;;;;;;;23.05;16.00;;;;;;;9.36;nan;101238.75;5010315;28;20398;-70
2022/04/30 09:18:21;;;;;;;20.35;15.85;;;;;;;9.33;nan;101231.09;5010446;28;20411;-69
2022/04/30 09:20:52;;;;;;;27.40;17.90;;;;;;;9.36;nan;101230.84;5005975;28;20030;-70
2022/04/30 09:23:24;;;;;;;;;;;;;;;9.31;nan;101236.50;5008426;28;20042;-69
2022/04/30 09:25:52;;;;;;;20.83;16.27;;;;;;;9.35;nan;101234.47;5024371;28;19921;-70
2022/04/30 09:28:45;;;;;;;20.55;15.82;;;;;;;9.44;nan;101239.00;5007715;28;20029;-70
2022/04/30 09:31:18;;;;;;;22.10;16.63;;;;;;;9.40;nan;101240.19;5007253;28;20042;-70
2022/04/30 09:33:57;;;;;;;22.58;17.60;;;;;;;9.44;nan;101246.03;5008999;28;20034;-69
2022/04/30 09:39:13;;;;;;;19.08;15.55;;;;;;;9.53;nan;101237.38;5009563;28;20041;-69
2022/04/30 09:41:38;;;;;;;18.58;15.30;;;;;;;9.59;nan;101236.03;5012285;28;20519;-69
2022/04/30 09:44:08;;;;;;;20.17;14.95;;;;;;;9.65;nan;101238.16;5013254;28;20048;-70
2022/04/30 09:46:35;;;;;;;18.98;15.30;;;;;;;9.68;nan;101248.47;5005952;28;20030;-70
2022/04/30 09:54:34;;;;;;;18.38;14.02;;;;;;;9.78;nan;101233.53;5017509;28;20108;-70
2022/04/30 09:57:01;;;;;;;19.15;15.07;;;;;;;9.74;nan;101247.94;5012317;28;20038;-69
2022/04/30 09:59:27;;;;;;;23.42;16.20;;;;;;;9.77;nan;101240.63;5015296;28;20403;-69
2022/04/30 10:01:53;;;;;;;18.42;14.93;;;;;;;9.77;nan;101242.41;5015665;28;20099;-69
2022/04/30 10:04:18;;;;;;;20.45;14.18;;;;;;;9.79;nan;101237.81;5016556;28;20037;-69
2022/04/30 10:06:51;;;;;;;19.08;14.88;;;;;;;9.81;nan;101241.19;5009093;28;20030;-69
2022/04/30 10:09:32;;;;;;;19.27;13.75;;;;;;;9.74;nan;101248.78;5007854;28;20129;-69
2022/04/30 10:12:26;;;;;;;19.65;14.15;;;;;;;9.84;nan;101243.56;5011491;28;20041;-69
2022/04/30 10:15:07;;;;;;;16.45;12.38;;;;;;;9.97;nan;101241.56;5011510;28;20049;-70
2022/04/30 10:17:34;;;;;;;;;;;;;;;10.05;nan;101242.72;5008334;28;20034;-69
2022/04/30 10:20:07;;;;;;;17.40;12.57;;;;;;;10.03;nan;101240.19;5010703;28;20054;-70
2022/04/30 10:22:33;;;;;;;18.52;13.98;;;;;;;9.97;nan;101246.00;5015300;23;20620;-70
2022/04/30 10:24:59;;;;;;;16.58;11.90;;;;;;;9.96;nan;101245.19;5005646;28;20117;-70
2022/04/30 10:27:37;;;;;;;17.10;12.63;;;;;;;9.94;nan;101233.91;5006650;28;20034;-70
2022/04/30 10:30:05;;;;;;;20.08;15.02;;;;;;;9.88;nan;101241.50;5022155;28;20405;-70
2022/04/30 10:32:33;;;;;;;17.92;13.68;;;;;;;9.92;nan;101243.75;5017384;28;20064;-70
2022/04/30 10:35:00;;;;;;;16.98;13.00;;;;;;;9.88;nan;101236.22;5023570;28;20153;-70
2022/04/30 10:37:27;;;;;;;15.98;12.57;;;;;;;9.99;nan;101233.50;5013377;28;20038;-70
2022/04/30 10:40:00;;;;;;;15.98;12.48;;;;;;;10.19;nan;101239.72;5006857;28;20117;-70
2022/04/30 10:42:39;;;;;;;15.18;12.48;;;;;;;10.34;nan;101233.13;5009321;28;20034;-70
2022/04/30 10:45:07;;;;;;;14.82;11.55;;;;;;;10.43;nan;101230.69;5020090;28;20406;-70
2022/04/30 10:47:32;;;;;;;15.02;12.68;;;;;;;10.53;nan;101236.84;5023373;28;20029;-70
2022/04/30 10:49:58;;;;;;;15.52;12.23;;;;;;;10.51;nan;101236.13;5014633;28;20402;-70
2022/04/30 10:52:26;;;;;;;15.55;12.75;;;;;;;10.54;nan;101236.72;5007703;28;20489;-70
2022/04/30 10:54:58;;;;;;;14.65;11.40;;;;;;;10.57;nan;101230.31;5010481;28;20049;-70
2022/04/30 10:57:23;;;;;;;13.20;10.57;;;;;;;10.64;nan;101231.44;5008918;28;20057;-70
2022/04/30 11:00:01;;;;;;;13.38;10.63;;;;;;;10.50;nan;101235.28;5007955;28;20104;-71
2022/04/30 11:02:31;;;;;;;11.75;9.82;;;;;;;10.53;nan;101228.91;5008921;28;20086;-71
2022/04/30 11:04:57;;;;;;;13.43;10.02;;;;;;;10.49;nan;101233.63;5008503;28;20050;-70
2022/04/30 11:07:23;;;;;;;11.40;9.05;;;;;;;10.42;nan;101229.84;5008903;28;20119;-70
2022/04/30 11:09:48;;;;;;;9.32;8.30;;;;;;;10.33;nan;101236.75;5007357;28;20030;-70
2022/04/30 11:12:16;;;;;;;11.60;8.90;;;;;;;10.26;nan;101234.75;5011387;28;20211;-71
2022/04/30 11:14:44;;;;;;;10.40;8.43;;;;;;;10.16;nan;101237.34;5004471;28;20041;-70
2022/04/30 11:17:10;;;;;;;11.10;7.82;;;;;;;10.17;nan;101247.78;5005686;28;20034;-70
2022/04/30 11:19:43;;;;;;;9.95;7.95;;;;;;;10.13;nan;101241.09;5005337;28;20092;-71
2022/04/30 11:22:09;;;;;;;9.88;7.93;;;;;;;10.07;nan;101246.91;5009119;28;20100;-70
2022/04/30 11:24:37;;;;;;;10.48;7.82;;;;;;;9.95;nan;101243.50;5005197;28;20041;-71
2022/04/30 11:27:04;;;;;;;9.35;7.32;;;;;;;9.93;nan;101236.66;5008085;28;20084;-70
2022/04/30 11:29:31;;;;;;;10.57;8.07;;;;;;;9.93;nan;101232.22;5008031;28;20619;-71
2022/04/30 11:31:58;;;;;;;10.48;8.15;;;;;;;9.91;nan;101223.56;5005194;28;20524;-71
2022/04/30 11:34:24;;;;;;;10.57;7.55;;;;;;;9.99;nan;101230.88;5010726;28;20034;-71
2022/04/30 11:36:51;;;;;;;10.45;8.27;;;;;;;10.25;nan;101227.78;5003461;28;20133;-70
2022/04/30 11:39:18;;;;;;;9.05;7.55;;;;;;;10.59;nan;101226.56;5015341;28;20307;-70
2022/04/30 11:41:45;;;;;;;8.90;7.20;;;;;;;10.87;nan;101229.44;5003780;28;20149;-70
2022/04/30 11:44:12;;;;;;;8.23;6.72;;;;;;;11.12;nan;101227.22;5004385;28;20402;-70
2022/04/30 11:46:40;;;;;;;9.45;7.65;;;;;;;10.80;nan;101239.72;5008926;28;20041;-70
2022/04/30 11:49:17;;;;;;;10.23;7.85;;;;;;;10.77;nan;101239.13;5024347;28;20040;-70
2022/04/30 11:51:43;;;;;;;8.57;7.32;;;;;;;10.67;nan;101236.47;5004554;28;20042;-70
2022/04/30 11:54:11;;;;;;;10.00;7.90;;;;;;;10.55;nan;101237.53;5011002;28;20494;-69
2022/04/30 11:56:38;;;;;;;9.55;7.50;;;;;;;10.50;nan;101234.47;5009183;28;20049;-70
2022/04/30 11:59:04;;;;;;;9.38;7.57;;;;;;;10.54;nan;101236.72;5010395;28;20037;-70
2022/04/30 12:01:31;;;;;;;9.75;7.95;;;;;;;10.56;nan;101231.31;5011647;28;20030;-69
2022/04/30 12:04:03;;;;;;;8.80;7.78;;;;;;;10.54;nan;101238.53;5002708;28;20046;-70
2022/04/30 12:06:29;;;;;;;9.35;7.78;;;;;;;10.55;nan;101233.09;5003122;28;20422;-70